createdAt,value
2018-09-06T00:00:10.118Z,31.50
2018-09-06T00:01:09.096Z,30.80
2018-09-06T00:03:06.068Z,27.50
2018-09-06T00:04:06.547Z,27.20
2018-09-06T00:06:01.497Z,27.70
2018-09-06T00:07:01.025Z,26.00
2018-09-06T00:09:58.206Z,26.30
2018-09-06T00:13:55.196Z,24.80
2018-09-06T00:15:51.648Z,24.30
2018-09-06T00:16:51.155Z,24.10
2018-09-06T00:18:47.111Z,24.40
2018-09-06T00:19:47.084Z,23.20
2018-09-06T00:21:43.581Z,25.50
2018-09-06T00:22:43.031Z,25.10
2018-09-06T00:24:38.977Z,26.70
2018-09-06T00:25:38.971Z,28.50
2018-09-06T00:27:34.930Z,27.40
2018-09-06T00:28:34.932Z,28.00
2018-09-06T00:30:31.392Z,28.10
2018-09-06T00:31:31.820Z,29.00
2018-09-06T00:33:27.346Z,28.50
2018-09-06T00:34:27.351Z,28.40
2018-09-06T00:36:24.304Z,27.90
2018-09-06T00:37:22.774Z,28.20
2018-09-06T00:39:19.229Z,28.80
2018-09-06T00:40:18.737Z,27.90
2018-09-06T00:42:15.182Z,27.30
2018-09-06T00:43:14.674Z,28.50
2018-09-06T00:45:11.120Z,27.00
2018-09-06T00:46:10.613Z,28.20
2018-09-06T00:48:07.070Z,28.50
2018-09-06T00:49:06.576Z,27.30
2018-09-06T00:51:02.549Z,29.80
2018-09-06T00:52:03.534Z,28.60
2018-09-06T00:53:58.516Z,28.90
2018-09-06T00:54:58.531Z,28.10
2018-09-06T00:56:54.465Z,30.60
2018-09-06T00:57:54.479Z,29.60
2018-09-06T00:59:50.429Z,29.10
2018-09-06T01:00:50.450Z,29.90
2018-09-06T01:02:46.381Z,28.60
2018-09-06T01:03:47.391Z,27.80
2018-09-06T01:05:42.366Z,28.70
2018-09-06T01:06:43.356Z,30.50
2018-09-06T01:08:39.815Z,27.60
2018-09-06T01:09:38.294Z,29.50
2018-09-06T01:11:34.235Z,28.30
2018-09-06T01:12:34.253Z,27.00
2018-09-06T01:14:30.210Z,28.40
2018-09-06T01:15:30.216Z,29.50
2018-09-06T01:17:26.190Z,29.00
2018-09-06T01:18:26.687Z,29.20
2018-09-06T01:20:23.627Z,28.70
2018-09-06T01:21:22.117Z,28.70
2018-09-06T01:23:18.097Z,29.10
2018-09-06T01:24:18.093Z,28.50
2018-09-06T01:26:14.017Z,27.10
2018-09-06T01:27:14.007Z,26.80
2018-09-06T01:29:10.463Z,28.30
2018-09-06T01:30:09.975Z,26.60
2018-09-06T01:32:05.909Z,29.90
2018-09-06T01:33:05.912Z,31.60
2018-09-06T01:35:02.378Z,30.10
2018-09-06T01:36:01.870Z,29.40
2018-09-06T01:37:58.328Z,30.60
2018-09-06T01:38:58.357Z,31.70
2018-09-06T01:40:55.285Z,30.10
2018-09-06T01:41:53.764Z,29.60
2018-09-06T01:43:49.747Z,29.80
2018-09-06T01:44:49.716Z,31.80
2018-09-06T01:46:45.654Z,33.60
2018-09-06T01:47:45.666Z,33.00
2018-09-06T01:49:42.105Z,33.70
2018-09-06T01:50:41.615Z,36.50
2018-09-06T01:52:37.568Z,35.90
2018-09-06T01:53:37.548Z,35.20
2018-09-06T01:55:33.527Z,38.10
2018-09-06T01:56:33.482Z,40.90
2018-09-06T01:58:29.429Z,38.00
2018-09-06T01:59:29.416Z,39.80
2018-09-06T02:01:26.417Z,37.80
2018-09-06T02:02:25.379Z,36.80
2018-09-06T02:04:21.865Z,38.80
2018-09-06T02:05:21.333Z,39.90
2018-09-06T02:07:17.788Z,40.10
2018-09-06T02:08:17.788Z,37.10
2018-09-06T02:10:13.238Z,35.60
2018-09-06T02:11:13.216Z,36.20
2018-09-06T02:13:09.163Z,38.10
2018-09-06T02:14:09.178Z,38.40
2018-09-06T02:16:05.134Z,35.90
2018-09-06T02:17:05.114Z,39.60
2018-09-06T02:19:01.087Z,36.10
2018-09-06T02:20:01.068Z,36.20
2018-09-06T02:21:57.009Z,36.00
2018-09-06T02:22:57.533Z,36.90
2018-09-06T02:24:52.993Z,37.90
2018-09-06T02:25:52.968Z,35.30
2018-09-06T02:27:48.934Z,39.90
2018-09-06T02:28:48.928Z,40.10
2018-09-06T02:30:45.373Z,39.00
2018-09-06T02:31:44.856Z,40.90
2018-09-06T02:33:40.816Z,40.70
2018-09-06T02:34:40.798Z,46.70
2018-09-06T02:36:36.747Z,44.90
2018-09-06T02:37:36.756Z,42.60
2018-09-06T02:39:33.241Z,43.60
2018-09-06T02:40:33.237Z,44.60
2018-09-06T02:42:31.199Z,47.60
2018-09-06T02:43:30.826Z,45.20
2018-09-06T02:45:27.289Z,52.20
2018-09-06T02:46:27.295Z,51.00
2018-09-06T02:48:22.726Z,52.20
2018-09-06T02:49:22.744Z,54.00
2018-09-06T02:51:18.701Z,54.30
2018-09-06T02:52:18.710Z,53.80
2018-09-06T02:54:14.648Z,52.70
2018-09-06T02:55:14.617Z,55.10
2018-09-06T02:57:10.578Z,58.20
2018-09-06T02:58:10.584Z,57.30
2018-09-06T03:00:09.536Z,56.80
2018-09-06T03:01:08.746Z,55.70
2018-09-06T03:03:04.626Z,56.70
2018-09-06T03:04:05.171Z,60.30
2018-09-06T03:06:00.613Z,60.80
2018-09-06T03:07:01.116Z,55.20
2018-09-06T03:08:57.563Z,61.00
2018-09-06T03:09:56.542Z,56.00
2018-09-06T03:11:52.535Z,51.30
2018-09-06T03:12:53.001Z,49.60
2018-09-06T03:14:49.970Z,55.50
2018-09-06T03:15:48.454Z,50.00
2018-09-06T03:17:44.413Z,54.30
2018-09-06T03:18:45.343Z,53.50
2018-09-06T03:20:41.343Z,55.20
2018-09-06T03:21:40.356Z,56.10
2018-09-06T03:23:36.366Z,56.90
2018-09-06T03:24:36.315Z,61.10
2018-09-06T03:26:32.277Z,59.20
2018-09-06T03:27:32.781Z,55.50
2018-09-06T03:29:28.226Z,58.60
2018-09-06T03:30:28.210Z,53.80
2018-09-06T03:32:24.203Z,54.60
2018-09-06T03:33:24.151Z,56.40
2018-09-06T03:35:22.106Z,55.70
2018-09-06T03:36:22.113Z,52.60
2018-09-06T03:38:19.564Z,53.00
2018-09-06T03:39:18.055Z,50.10
2018-09-06T03:41:16.178Z,48.10
2018-09-06T03:42:17.041Z,50.60
2018-09-06T03:44:12.178Z,53.10
2018-09-06T03:45:12.105Z,53.80
2018-09-06T03:47:08.086Z,47.40
2018-09-06T03:48:08.090Z,46.80
2018-09-06T03:50:04.545Z,53.60
2018-09-06T03:51:05.542Z,49.00
2018-09-06T03:53:04.502Z,55.20
2018-09-06T03:54:04.516Z,49.70
2018-09-06T03:56:04.939Z,52.80
2018-09-06T03:57:04.932Z,53.30
2018-09-06T03:59:05.413Z,58.40
2018-09-06T04:00:05.856Z,58.40
2018-09-06T04:02:04.788Z,66.70
2018-09-06T04:03:03.439Z,62.80
2018-09-06T04:05:03.415Z,65.60
2018-09-06T04:06:01.607Z,63.70
2018-09-06T04:08:01.127Z,64.60
2018-09-06T04:09:00.624Z,69.10
2018-09-06T04:10:55.765Z,66.60
2018-09-06T04:11:55.816Z,63.50
2018-09-06T04:13:53.657Z,70.20
2018-09-06T04:14:53.572Z,71.20
2018-09-06T04:16:53.089Z,69.40
2018-09-06T04:17:53.581Z,73.80
2018-09-06T04:19:49.743Z,71.80
2018-09-06T04:20:48.670Z,73.20
2018-09-06T04:22:46.920Z,77.90
2018-09-06T04:23:46.906Z,76.50
2018-09-06T04:25:48.228Z,79.10
2018-09-06T04:26:48.164Z,78.00
2018-09-06T04:28:47.744Z,79.90
2018-09-06T04:29:47.867Z,85.40
2018-09-06T04:31:43.708Z,80.50
2018-09-06T04:32:43.624Z,81.10
2018-09-06T04:34:44.081Z,87.50
2018-09-06T04:35:44.139Z,90.50
2018-09-06T04:37:58.078Z,84.10
2018-09-06T04:38:57.313Z,86.40
2018-09-06T04:40:58.449Z,87.10
2018-09-06T04:41:58.226Z,84.70
2018-09-06T04:43:56.878Z,86.00
2018-09-06T04:44:56.686Z,87.50
2018-09-06T04:46:58.717Z,94.80
2018-09-06T04:47:56.353Z,88.40
2018-09-06T04:49:57.333Z,91.70
2018-09-06T04:50:56.847Z,91.20
2018-09-06T04:52:57.915Z,98.50
2018-09-06T04:53:57.757Z,94.60
2018-09-06T04:55:58.723Z,96.50
2018-09-06T04:56:57.765Z,106.80
2018-09-06T04:58:58.203Z,100.20
2018-09-06T04:59:58.689Z,99.20
2018-09-06T05:01:59.468Z,96.80
2018-09-06T05:02:58.616Z,99.30
2018-09-06T05:05:58.981Z,96.10
2018-09-06T05:07:54.955Z,107.90
2018-09-06T05:08:54.941Z,100.10
2018-09-06T05:10:54.017Z,109.30
2018-09-06T05:11:53.909Z,114.20
2018-09-06T05:13:53.905Z,104.00
2018-09-06T05:14:54.388Z,104.00
2018-09-06T05:16:49.906Z,104.40
2018-09-06T05:17:49.887Z,106.70
2018-09-06T05:19:48.836Z,103.20
2018-09-06T05:20:48.311Z,95.00
2018-09-06T05:22:45.538Z,100.50
2018-09-06T05:23:46.969Z,94.20
2018-09-06T05:25:42.097Z,96.20
2018-09-06T05:26:41.364Z,107.30
2018-09-06T05:28:41.843Z,94.40
2018-09-06T05:29:41.928Z,98.50
2018-09-06T05:31:39.769Z,98.50
2018-09-06T05:32:39.741Z,97.10
2018-09-06T05:34:40.248Z,88.50
2018-09-06T05:35:40.203Z,90.40
2018-09-06T05:37:40.742Z,93.30
2018-09-06T05:38:41.138Z,93.60
2018-09-06T05:40:42.181Z,94.10
2018-09-06T05:41:42.187Z,81.40
2018-09-06T05:43:39.075Z,96.70
2018-09-06T05:44:39.083Z,98.30
2018-09-06T05:46:40.570Z,88.30
2018-09-06T05:47:39.580Z,76.50
2018-09-06T05:49:37.506Z,87.50
2018-09-06T05:50:36.536Z,85.70
2018-09-06T05:52:33.456Z,91.60
2018-09-06T05:53:32.591Z,85.80
2018-09-06T05:55:28.962Z,87.20
2018-09-06T05:56:28.886Z,84.90
2018-09-06T05:58:26.383Z,88.20
2018-09-06T05:59:25.727Z,92.40
2018-09-06T06:01:23.660Z,89.30
2018-09-06T06:02:23.652Z,97.80
2018-09-06T06:04:22.104Z,87.60
2018-09-06T06:05:21.834Z,88.70
2018-09-06T06:07:19.724Z,91.60
2018-09-06T06:08:20.265Z,89.10
2018-09-06T06:11:52.864Z,92.80
2018-09-06T06:12:52.834Z,88.60
2018-09-06T06:14:48.286Z,94.70
2018-09-06T06:15:48.294Z,101.90
2018-09-06T06:17:47.216Z,92.20
2018-09-06T06:18:46.685Z,103.80
2018-09-06T06:20:42.220Z,92.80
2018-09-06T06:21:43.044Z,86.80
2018-09-06T06:23:40.093Z,99.40
2018-09-06T06:24:40.587Z,103.80
2018-09-06T06:26:37.115Z,96.90
2018-09-06T06:27:37.057Z,87.20
2018-09-06T06:29:34.988Z,94.50
2018-09-06T06:30:35.537Z,91.80
2018-09-06T06:32:33.473Z,83.10
2018-09-06T06:33:33.178Z,84.30
2018-09-06T06:35:31.094Z,91.10
2018-09-06T06:36:31.119Z,85.90
2018-09-06T06:38:30.036Z,90.60
2018-09-06T06:39:29.214Z,81.50
2018-09-06T06:41:28.649Z,85.90
2018-09-06T06:42:27.171Z,84.50
2018-09-06T06:44:23.111Z,86.60
2018-09-06T06:45:23.654Z,81.50
2018-09-06T06:47:20.485Z,73.20
2018-09-06T06:48:19.072Z,80.20
2018-09-06T06:50:18.075Z,77.60
2018-09-06T06:51:18.947Z,79.30
2018-09-06T06:53:17.525Z,72.00
2018-09-06T06:54:17.521Z,74.80
2018-09-06T06:56:15.416Z,72.40
2018-09-06T06:57:15.436Z,73.70
2018-09-06T06:59:11.919Z,69.70
2018-09-06T07:00:11.367Z,64.10
2018-09-06T07:02:07.827Z,74.30
2018-09-06T07:03:08.816Z,72.50
2018-09-06T07:05:07.843Z,65.30
2018-09-06T07:06:10.461Z,64.80
2018-09-06T07:08:11.987Z,61.40
2018-09-06T07:09:09.291Z,63.30
2018-09-06T07:11:09.224Z,67.40
2018-09-06T07:12:09.289Z,68.90
2018-09-06T07:14:06.645Z,68.10
2018-09-06T07:15:07.149Z,66.00
2018-09-06T07:18:44.391Z,65.70
2018-09-06T07:19:43.776Z,64.70
2018-09-06T07:21:45.276Z,67.80
2018-09-06T07:22:45.012Z,68.00
2018-09-06T07:24:46.036Z,64.50
2018-09-06T07:25:45.959Z,68.30
2018-09-06T07:27:46.404Z,64.80
2018-09-06T07:28:45.930Z,72.60
2018-09-06T07:30:43.888Z,67.30
2018-09-06T07:31:43.886Z,68.30
2018-09-06T07:33:44.847Z,65.50
2018-09-06T07:34:45.301Z,66.50
2018-09-06T07:36:44.779Z,70.60
2018-09-06T07:37:44.793Z,64.50
2018-09-06T07:39:46.279Z,63.80
2018-09-06T07:40:45.289Z,60.30
2018-09-06T07:42:45.807Z,59.40
2018-09-06T07:43:45.771Z,58.90
2018-09-06T07:45:46.751Z,56.30
2018-09-06T07:46:46.220Z,54.90
2018-09-06T07:48:46.715Z,52.70
2018-09-06T07:49:47.158Z,57.70
2018-09-06T07:51:48.126Z,56.60
2018-09-06T07:52:47.161Z,56.10
2018-09-06T07:54:49.589Z,54.80
2018-09-06T07:55:48.458Z,53.70
2018-09-06T07:57:50.130Z,51.40
2018-09-06T07:58:48.874Z,55.80
2018-09-06T08:02:40.252Z,54.00
2018-09-06T08:03:39.604Z,50.20
2018-09-06T08:05:42.516Z,46.30
2018-09-06T08:06:41.788Z,46.90
2018-09-06T08:09:05.184Z,53.20
2018-09-06T08:09:48.465Z,57.00
2018-09-06T08:11:43.025Z,50.80
2018-09-06T08:12:41.634Z,50.40
2018-09-06T08:14:42.131Z,52.90
2018-09-06T08:15:42.617Z,52.90
2018-09-06T08:17:41.107Z,51.10
2018-09-06T08:18:40.117Z,48.90
2018-09-06T08:20:40.547Z,48.70
2018-09-06T08:21:41.070Z,47.60
2018-09-06T08:23:41.484Z,55.10
2018-09-06T08:24:42.005Z,47.90
2018-09-06T08:26:42.031Z,47.60
2018-09-06T08:27:41.458Z,49.40
2018-09-06T08:29:39.419Z,50.50
2018-09-06T08:30:40.500Z,49.40
2018-09-06T08:32:37.436Z,51.00
2018-09-06T08:33:38.395Z,55.20
2018-09-06T08:35:37.851Z,52.80
2018-09-06T08:36:38.378Z,51.90
2018-09-06T08:38:38.258Z,56.40
2018-09-06T08:39:38.780Z,51.00
2018-09-06T08:41:37.252Z,56.80
2018-09-06T08:42:37.074Z,52.40
2018-09-06T08:44:37.565Z,53.30
2018-09-06T08:45:38.521Z,57.70
2018-09-06T08:47:38.114Z,58.70
2018-09-06T08:48:38.541Z,55.00
2018-09-06T08:50:39.000Z,58.80
2018-09-06T08:51:38.952Z,60.50
2018-09-06T08:53:39.933Z,57.90
2018-09-06T08:54:39.422Z,54.50
2018-09-06T08:56:39.836Z,51.90
2018-09-06T08:57:39.353Z,52.30
2018-09-06T08:59:39.876Z,53.40
2018-09-06T09:00:40.318Z,54.30
2018-09-06T09:02:37.871Z,57.10
2018-09-06T09:03:37.808Z,56.90
2018-09-06T09:05:36.221Z,56.60
2018-09-06T09:06:36.242Z,52.20
2018-09-06T09:08:37.985Z,61.30
2018-09-06T09:09:36.200Z,58.90
2018-09-06T09:11:36.651Z,61.90
2018-09-06T09:12:36.777Z,55.10
2018-09-06T09:14:37.098Z,59.20
2018-09-06T09:15:35.550Z,55.30
2018-09-06T09:17:36.218Z,52.10
2018-09-06T09:18:35.199Z,55.50
2018-09-06T09:20:36.781Z,60.80
2018-09-06T09:21:36.235Z,56.60
2018-09-06T09:23:33.098Z,58.40
2018-09-06T09:24:32.736Z,55.30
2018-09-06T09:26:33.106Z,56.30
2018-09-06T09:27:32.580Z,58.10
2018-09-06T09:29:32.663Z,60.00
2018-09-06T09:30:32.702Z,61.40
2018-09-06T09:32:35.096Z,62.30
2018-09-06T09:33:47.691Z,63.60
2018-09-06T09:35:33.969Z,60.90
2018-09-06T09:36:33.435Z,61.20
2018-09-06T09:38:34.955Z,57.70
2018-09-06T09:39:33.909Z,60.30
2018-09-06T09:41:34.876Z,58.80
2018-09-06T09:42:34.402Z,57.80
2018-09-06T09:44:35.334Z,55.10
2018-09-06T09:45:34.861Z,53.90
2018-09-06T09:47:50.849Z,50.20
2018-09-06T09:49:25.843Z,49.60
2018-09-06T09:51:41.924Z,56.30
2018-09-06T09:52:41.930Z,56.60
2018-09-06T09:54:41.912Z,56.10
2018-09-06T09:55:40.895Z,52.90
2018-09-06T09:57:36.879Z,56.00
2018-09-06T09:58:37.529Z,53.40
2018-09-06T10:00:34.836Z,58.00
2018-09-06T10:01:34.886Z,62.50
2018-09-06T10:03:37.300Z,57.90
2018-09-06T10:04:37.299Z,60.40
2018-09-06T10:06:36.815Z,61.20
2018-09-06T10:07:36.735Z,61.40
2018-09-06T10:11:08.402Z,62.60
2018-09-06T10:12:07.337Z,61.90
2018-09-06T10:14:05.299Z,64.10
2018-09-06T10:15:05.879Z,62.20
2018-09-06T10:17:03.326Z,62.80
2018-09-06T10:18:04.260Z,64.30
2018-09-06T10:19:59.232Z,67.10
2018-09-06T10:20:59.230Z,63.00
2018-09-06T10:22:57.687Z,67.40
2018-09-06T10:23:57.162Z,64.50
2018-09-06T10:25:54.140Z,68.80
2018-09-06T10:26:53.121Z,63.60
2018-09-06T10:28:49.137Z,62.40
2018-09-06T10:29:49.059Z,58.30
2018-09-06T10:31:45.025Z,60.00
2018-09-06T10:32:45.011Z,58.50
2018-09-06T10:34:40.999Z,69.90
2018-09-06T10:35:40.965Z,61.80
2018-09-06T10:37:38.909Z,59.60
2018-09-06T10:38:38.922Z,54.70
2018-09-06T10:40:46.568Z,50.50
2018-09-06T10:41:46.529Z,55.50
2018-09-06T10:43:42.507Z,55.40
2018-09-06T10:44:42.470Z,51.80
2018-09-06T10:46:38.944Z,52.30
2018-09-06T10:47:38.447Z,50.60
2018-09-06T10:49:34.390Z,50.40
2018-09-06T10:50:34.396Z,52.10
2018-09-06T10:52:30.377Z,53.00
2018-09-06T10:53:30.356Z,52.00
2018-09-06T10:55:26.832Z,53.30
2018-09-06T10:56:26.309Z,49.60
2018-09-06T10:58:23.249Z,49.80
2018-09-06T10:59:22.818Z,47.40
2018-09-06T11:01:18.221Z,48.30
2018-09-06T11:02:18.189Z,49.00
2018-09-06T11:04:14.137Z,49.10
2018-09-06T11:05:14.145Z,52.20
2018-09-06T11:07:10.097Z,46.80
2018-09-06T11:08:10.229Z,47.40
2018-09-06T11:10:06.052Z,46.70
2018-09-06T11:11:06.041Z,46.90
2018-09-06T11:13:02.497Z,47.50
2018-09-06T11:14:02.005Z,44.30
2018-09-06T11:15:58.037Z,41.30
2018-09-06T11:16:57.943Z,42.30
2018-09-06T11:18:53.886Z,44.30
2018-09-06T11:19:53.888Z,43.60
2018-09-06T11:21:50.075Z,44.90
2018-09-06T11:22:49.878Z,44.10
2018-09-06T11:24:45.834Z,45.20
2018-09-06T11:25:45.806Z,44.10
2018-09-06T11:27:41.847Z,45.40
2018-09-06T11:28:41.750Z,45.70
2018-09-06T11:30:37.746Z,43.70
2018-09-06T11:31:37.737Z,42.20
2018-09-06T11:33:33.694Z,41.50
2018-09-06T11:35:49.670Z,40.70
2018-09-06T11:36:49.666Z,37.40
2018-09-06T11:38:46.133Z,43.60
2018-09-06T11:39:45.599Z,44.80
2018-09-06T11:41:41.575Z,46.20
2018-09-06T11:43:57.506Z,45.40
2018-09-06T11:44:57.524Z,47.50
2018-09-06T11:46:53.559Z,46.80
2018-09-06T11:47:53.485Z,45.50
2018-09-06T11:49:50.421Z,41.20
2018-09-06T11:50:49.936Z,43.30
2018-09-06T11:52:45.404Z,40.60
2018-09-06T11:53:46.385Z,41.20
2018-09-06T11:55:41.343Z,39.00
2018-09-06T11:56:41.335Z,35.20
2018-09-06T11:58:38.323Z,34.20
2018-09-06T11:59:37.301Z,32.70
2018-09-06T12:01:33.273Z,32.60
2018-09-06T12:02:33.246Z,31.90
2018-09-06T12:04:29.697Z,31.90
2018-09-06T12:05:29.197Z,30.20
2018-09-06T12:07:25.158Z,27.60
2018-09-06T12:08:25.168Z,28.40
2018-09-06T12:10:21.100Z,28.90
2018-09-06T12:11:21.612Z,31.30
2018-09-06T12:13:18.060Z,30.10
2018-09-06T12:14:18.059Z,31.00
2018-09-06T12:16:14.048Z,30.00
2018-09-06T12:17:15.528Z,28.60
2018-09-06T12:19:10.992Z,31.10
2018-09-06T12:20:09.987Z,34.90
2018-09-06T12:22:05.995Z,33.50
2018-09-06T12:23:05.965Z,34.10
2018-09-06T12:25:01.929Z,37.90
2018-09-06T12:26:01.927Z,36.60
2018-09-06T12:27:57.873Z,37.90
2018-09-06T12:28:57.882Z,40.80
2018-09-06T12:30:53.832Z,44.10
2018-09-06T12:31:53.838Z,40.70
2018-09-06T12:33:48.309Z,37.10
2018-09-06T12:34:48.289Z,35.70
2018-09-06T12:36:44.747Z,36.40
2018-09-06T12:37:44.759Z,39.10
2018-09-06T12:39:41.259Z,38.40
2018-09-06T12:40:40.210Z,36.70
2018-09-06T12:42:36.171Z,38.60
2018-09-06T12:43:36.189Z,37.90
2018-09-06T12:45:33.172Z,36.00
2018-09-06T12:46:32.645Z,39.20
2018-09-06T12:48:28.606Z,37.20
2018-09-06T12:49:28.108Z,35.10
2018-09-06T12:51:24.053Z,36.50
2018-09-06T12:52:24.039Z,34.90
2018-09-06T12:54:20.018Z,36.60
2018-09-06T12:55:20.005Z,35.70
2018-09-06T12:57:16.983Z,34.40
2018-09-06T12:58:15.981Z,32.80
2018-09-06T13:00:13.950Z,32.20
2018-09-06T13:01:15.028Z,32.50
2018-09-06T13:04:48.202Z,32.50
2018-09-06T13:05:44.756Z,32.90
2018-09-06T13:07:41.282Z,34.10
2018-09-06T13:08:39.257Z,33.70
2018-09-06T13:10:35.141Z,31.10
2018-09-06T13:11:35.157Z,30.30
2018-09-06T13:13:31.605Z,34.10
2018-09-06T13:15:47.068Z,37.00
2018-09-06T13:16:47.541Z,36.80
2018-09-06T13:18:45.113Z,32.50
2018-09-06T13:19:44.969Z,31.60
2018-09-06T13:21:42.951Z,34.80
2018-09-06T13:22:42.451Z,30.80
2018-09-06T13:24:39.938Z,32.80
2018-09-06T13:25:39.931Z,33.80
2018-09-06T13:27:35.875Z,34.10
2018-09-06T13:28:36.814Z,34.70
2018-09-06T13:30:31.839Z,34.30
2018-09-06T13:31:31.840Z,36.70
2018-09-06T13:33:28.302Z,35.50
2018-09-06T13:35:44.253Z,35.30
2018-09-06T13:36:43.718Z,35.20
2018-09-06T13:38:40.179Z,41.90
2018-09-06T13:39:39.675Z,40.20
2018-09-06T13:41:36.650Z,41.10
2018-09-06T13:42:35.652Z,38.60
2018-09-06T13:44:31.622Z,36.80
2018-09-06T13:45:31.607Z,39.00
2018-09-06T13:47:28.496Z,36.60
2018-09-06T13:48:28.566Z,37.40
2018-09-06T13:50:23.540Z,40.80
2018-09-06T13:51:23.528Z,38.20
2018-09-06T13:53:20.032Z,36.60
2018-09-06T13:55:35.945Z,39.20
2018-09-06T13:56:35.952Z,42.30
2018-09-06T13:58:32.461Z,41.20
2018-09-06T13:59:31.392Z,39.30
2018-09-06T14:01:27.375Z,41.60
2018-09-06T14:02:27.358Z,41.40
2018-09-06T14:04:23.857Z,37.10
2018-09-06T14:05:23.343Z,38.90
2018-09-06T14:07:20.306Z,36.40
2018-09-06T14:08:19.306Z,40.60
2018-09-06T14:10:15.806Z,43.20
2018-09-06T14:11:15.259Z,39.60
2018-09-06T14:13:12.220Z,40.70
2018-09-06T14:14:11.225Z,41.20
2018-09-06T14:16:07.714Z,40.90
2018-09-06T14:17:07.163Z,44.20
2018-09-06T14:19:03.630Z,39.60
2018-09-06T14:20:03.108Z,37.60
2018-09-06T14:22:00.068Z,42.10
2018-09-06T14:22:59.064Z,39.30
2018-09-06T14:24:57.197Z,38.40
2018-09-06T14:25:57.214Z,40.40
2018-09-06T14:27:53.174Z,39.20
2018-09-06T14:28:53.190Z,38.70
2018-09-06T14:30:52.118Z,36.60
2018-09-06T14:31:51.271Z,35.70
2018-09-06T14:33:47.761Z,39.10
2018-09-06T14:34:47.228Z,38.10
2018-09-06T14:36:44.703Z,36.20
2018-09-06T14:37:44.206Z,37.00
2018-09-06T14:39:39.665Z,36.80
2018-09-06T14:40:39.159Z,36.20
2018-09-06T14:42:36.116Z,31.40
2018-09-06T14:43:35.139Z,30.90
2018-09-06T14:45:32.012Z,34.30
2018-09-06T14:46:31.072Z,34.10
2018-09-06T14:48:28.020Z,33.40
2018-09-06T14:49:27.013Z,33.20
2018-09-06T14:51:23.505Z,36.10
2018-09-06T14:52:22.995Z,32.40
2018-09-06T14:54:20.436Z,31.40
2018-09-06T14:55:19.941Z,33.30
2018-09-06T14:57:15.460Z,34.20
2018-09-06T14:58:14.955Z,33.90
2018-09-06T15:00:11.886Z,32.90
2018-09-06T15:01:12.371Z,33.90
2018-09-06T15:03:08.346Z,33.20
2018-09-06T15:04:08.864Z,32.40
2018-09-06T15:06:03.775Z,31.60
2018-09-06T15:07:03.775Z,32.40
2018-09-06T15:08:59.747Z,33.50
2018-09-06T15:09:59.720Z,33.80
2018-09-06T15:11:55.698Z,36.30
2018-09-06T15:12:55.678Z,33.80
2018-09-06T15:14:53.163Z,33.70
2018-09-06T15:15:52.131Z,35.60
2018-09-06T15:17:48.584Z,35.50
2018-09-06T15:18:47.593Z,33.40
2018-09-06T15:20:45.646Z,33.30
2018-09-06T15:21:45.550Z,34.40
2018-09-06T15:23:42.032Z,34.40
2018-09-06T15:24:42.003Z,36.80
2018-09-06T15:26:37.462Z,38.00
2018-09-06T15:27:37.989Z,35.10
2018-09-06T15:29:33.407Z,31.20
2018-09-06T15:30:33.924Z,32.80
2018-09-06T15:32:30.882Z,40.20
2018-09-06T15:33:30.371Z,35.80
2018-09-06T15:35:26.307Z,34.70
2018-09-06T15:36:26.315Z,34.20
2018-09-06T15:38:22.271Z,38.80
2018-09-06T15:39:22.275Z,40.40
2018-09-06T15:41:19.261Z,40.50
2018-09-06T15:42:18.737Z,40.40
2018-09-06T15:44:14.187Z,38.40
2018-09-06T15:45:14.207Z,37.00
2018-09-06T15:47:10.132Z,36.90
2018-09-06T15:48:10.661Z,38.50
2018-09-06T15:50:07.096Z,34.10
2018-09-06T15:51:06.091Z,32.80
2018-09-06T15:53:02.063Z,40.00
2018-09-06T15:54:02.034Z,38.70
2018-09-06T15:55:59.518Z,35.60
2018-09-06T15:56:57.968Z,32.80
2018-09-06T15:58:52.427Z,31.70
2018-09-06T15:59:52.929Z,36.20
2018-09-06T16:01:50.516Z,35.10
2018-09-06T16:02:50.404Z,38.50
2018-09-06T16:04:46.361Z,34.80
2018-09-06T16:05:46.348Z,34.00
2018-09-06T16:07:43.325Z,36.40
2018-09-06T16:08:43.237Z,35.40
2018-09-06T16:10:38.300Z,35.10
2018-09-06T16:11:38.281Z,36.00
2018-09-06T16:13:34.253Z,35.30
2018-09-06T16:14:34.250Z,32.30
2018-09-06T16:16:30.240Z,37.00
2018-09-06T16:17:31.215Z,31.80
2018-09-06T16:19:26.185Z,34.10
2018-09-06T16:20:26.182Z,34.30
2018-09-06T16:22:23.134Z,34.60
2018-09-06T16:23:22.663Z,30.60
2018-09-06T16:25:21.101Z,32.30
2018-09-06T16:26:20.265Z,34.40
2018-09-06T16:28:16.743Z,33.90
2018-09-06T16:29:16.253Z,34.30
2018-09-06T16:31:12.203Z,33.60
2018-09-06T16:32:12.197Z,36.00
2018-09-06T16:34:09.159Z,33.70
2018-09-06T16:35:08.711Z,33.90
2018-09-06T16:37:04.188Z,32.60
2018-09-06T16:38:04.138Z,32.40
2018-09-06T16:40:01.025Z,31.20
2018-09-06T16:41:00.107Z,30.60
2018-09-06T16:42:56.693Z,31.10
2018-09-06T16:45:12.179Z,33.30
2018-09-06T16:46:12.112Z,30.20
2018-09-06T16:48:09.068Z,28.80
2018-09-06T16:49:08.024Z,29.90
2018-09-06T16:51:04.011Z,29.80
2018-09-06T16:52:03.981Z,31.20
2018-09-06T16:54:01.938Z,30.30
2018-09-06T16:55:01.946Z,28.90
2018-09-06T16:56:57.871Z,32.10
2018-09-06T16:57:57.892Z,32.00
2018-09-06T16:59:53.859Z,30.40
2018-09-06T17:00:53.889Z,32.00
2018-09-06T17:02:49.880Z,34.10
2018-09-06T17:03:50.819Z,32.50
2018-09-06T17:05:48.798Z,30.20
2018-09-06T17:06:47.829Z,32.70
2018-09-06T17:08:43.712Z,31.90
2018-09-06T17:09:43.731Z,32.90
2018-09-06T17:11:41.709Z,33.50
2018-09-06T17:12:42.215Z,34.10
2018-09-06T17:14:39.153Z,35.40
2018-09-06T17:15:38.171Z,33.90
2018-09-06T17:17:33.595Z,36.10
2018-09-06T17:18:33.584Z,35.70
2018-09-06T17:20:30.611Z,34.70
2018-09-06T17:21:29.542Z,35.20
2018-09-06T17:23:25.489Z,32.40
2018-09-06T17:24:25.509Z,33.50
2018-09-06T17:26:21.472Z,34.80
2018-09-06T17:27:21.954Z,34.50
2018-09-06T17:29:17.423Z,31.30
2018-09-06T17:30:17.387Z,33.70
2018-09-06T17:32:13.446Z,33.20
2018-09-06T17:33:14.379Z,34.20
2018-09-06T17:35:09.298Z,32.60
2018-09-06T17:36:09.309Z,33.10
2018-09-06T17:38:05.280Z,34.60
2018-09-06T17:39:05.306Z,33.80
2018-09-06T17:41:02.733Z,33.30
2018-09-06T17:42:03.212Z,32.70
2018-09-06T17:43:58.186Z,34.30
2018-09-06T17:44:58.708Z,32.20
2018-09-06T17:46:54.143Z,33.10
2018-09-06T17:47:54.148Z,34.10
2018-09-06T17:49:50.148Z,34.40
2018-09-06T17:50:50.118Z,33.70
2018-09-06T17:52:46.064Z,32.90
2018-09-06T17:53:46.584Z,35.00
2018-09-06T17:55:42.537Z,34.30
2018-09-06T17:56:42.073Z,36.00
2018-09-06T17:58:38.042Z,33.50
2018-09-06T17:59:38.041Z,32.80
2018-09-06T18:01:34.096Z,35.80
2018-09-06T18:02:33.998Z,34.30
2018-09-06T18:04:29.988Z,35.80
2018-09-06T18:05:29.968Z,36.30
2018-09-06T18:07:26.424Z,33.10
2018-09-06T18:08:26.929Z,34.30
2018-09-06T18:10:20.708Z,33.80
2018-09-06T18:11:20.717Z,34.90
2018-09-06T18:13:15.173Z,44.90
2018-09-06T18:15:29.595Z,33.90
2018-09-06T18:16:29.594Z,33.90
2018-09-06T18:18:25.572Z,34.90
2018-09-06T18:19:24.051Z,33.50
2018-09-06T18:21:20.037Z,37.10
2018-09-06T18:22:19.999Z,33.60
2018-09-06T18:24:15.953Z,34.40
2018-09-06T18:25:15.984Z,35.60
2018-09-06T18:27:11.883Z,34.00
2018-09-06T18:28:11.887Z,35.20
2018-09-06T18:30:07.844Z,35.80
2018-09-06T18:31:07.837Z,37.90
2018-09-06T18:33:04.306Z,37.40
2018-09-06T18:34:03.783Z,39.50
2018-09-06T18:36:00.246Z,39.50
2018-09-06T18:36:59.702Z,38.30
2018-09-06T18:38:55.665Z,41.40
2018-09-06T18:39:55.640Z,38.50
2018-09-06T18:41:51.615Z,39.60
2018-09-06T18:42:52.608Z,44.20
2018-09-06T18:44:47.613Z,44.50
2018-09-06T18:45:48.584Z,43.20
2018-09-06T18:47:42.065Z,39.00
2018-09-06T18:48:42.059Z,39.50
2018-09-06T18:50:40.565Z,36.10
2018-09-06T18:51:40.188Z,36.90
2018-09-06T18:53:36.668Z,37.30
2018-09-06T18:55:52.606Z,36.30
2018-09-06T18:56:52.073Z,35.70
2018-09-06T18:58:48.043Z,33.00
2018-09-06T18:59:49.465Z,31.10
2018-09-06T19:01:41.518Z,33.30
2018-09-06T19:02:41.497Z,30.30
2018-09-06T19:04:36.441Z,26.80
2018-09-06T19:05:35.945Z,26.10
2018-09-06T19:07:31.908Z,25.50
2018-09-06T19:08:31.897Z,29.90
2018-09-06T19:10:28.362Z,23.40
2018-09-06T19:11:26.361Z,21.40
2018-09-06T19:13:23.334Z,16.90
2018-09-06T19:14:22.295Z,15.60
2018-09-06T19:16:18.283Z,14.60
2018-09-06T19:17:18.212Z,13.80
2018-09-06T19:19:13.676Z,13.90
2018-09-06T19:20:13.179Z,12.40